createdAt,value
2019-05-07T00:01:19.093Z,47.25
2019-05-07T00:03:49.928Z,43.30
2019-05-07T00:06:22.909Z,47.33
2019-05-07T00:08:53.627Z,45.55
2019-05-07T00:11:24.419Z,48.78
2019-05-07T00:13:55.139Z,44.25
2019-05-07T00:16:25.890Z,46.42
2019-05-07T00:18:56.554Z,44.30
2019-05-07T00:21:27.340Z,44.42
2019-05-07T00:23:58.092Z,42.25
2019-05-07T00:26:28.800Z,45.98
2019-05-07T00:28:59.660Z,41.65
2019-05-07T00:31:32.551Z,40.73
2019-05-07T00:34:03.276Z,41.68
2019-05-07T00:36:42.542Z,41.65
2019-05-07T00:39:23.386Z,41.48
2019-05-07T00:42:12.676Z,39.85
2019-05-07T00:45:14.311Z,38.60
2019-05-07T00:47:35.114Z,39.63
2019-05-07T00:50:12.967Z,38.80
2019-05-07T00:52:43.978Z,37.50
2019-05-07T00:55:14.611Z,40.33
2019-05-07T00:57:45.293Z,38.00
2019-05-07T01:00:16.268Z,39.18
2019-05-07T01:02:47.232Z,38.88
2019-05-07T01:05:17.925Z,36.23
2019-05-07T01:07:48.782Z,38.25
2019-05-07T01:10:19.440Z,35.95
2019-05-07T01:12:50.264Z,36.90
2019-05-07T01:15:30.424Z,36.85
2019-05-07T01:17:53.797Z,36.17
2019-05-07T01:20:24.709Z,35.92
2019-05-07T01:22:55.597Z,33.80
2019-05-07T01:25:26.581Z,36.70
2019-05-07T01:27:57.975Z,36.10
2019-05-07T01:30:28.956Z,34.53
2019-05-07T01:33:05.322Z,35.23
2019-05-07T01:35:53.672Z,34.43
2019-05-07T01:38:24.755Z,34.15
2019-05-07T01:40:55.699Z,35.17
2019-05-07T01:43:26.454Z,32.75
2019-05-07T01:45:57.430Z,33.28
2019-05-07T01:48:28.218Z,33.30
2019-05-07T01:50:59.147Z,32.63
2019-05-07T01:53:32.174Z,31.57
2019-05-07T01:56:03.260Z,33.15
2019-05-07T01:58:34.296Z,33.45
2019-05-07T02:01:05.111Z,32.20
2019-05-07T02:03:44.748Z,31.52
2019-05-07T02:06:22.067Z,31.37
2019-05-07T02:09:02.451Z,28.73
2019-05-07T02:11:38.570Z,31.10
2019-05-07T02:14:09.733Z,30.48
2019-05-07T02:16:41.857Z,30.85
2019-05-07T02:19:12.815Z,30.57
2019-05-07T02:21:43.777Z,29.07
2019-05-07T02:24:14.499Z,28.70
2019-05-07T02:26:45.058Z,29.40
2019-05-07T02:29:15.957Z,27.32
2019-05-07T02:31:46.801Z,28.17
2019-05-07T02:34:17.618Z,26.85
2019-05-07T02:36:48.380Z,27.75
2019-05-07T02:39:24.906Z,28.00
2019-05-07T02:41:55.882Z,25.95
2019-05-07T02:44:27.018Z,27.93
2019-05-07T02:47:06.525Z,28.02
2019-05-07T02:49:46.459Z,25.72
2019-05-07T02:52:36.305Z,26.50
2019-05-07T02:55:13.505Z,25.75
2019-05-07T02:57:44.442Z,25.17
2019-05-07T03:00:19.102Z,25.52
2019-05-07T03:02:47.984Z,24.95
2019-05-07T03:05:18.760Z,25.17
2019-05-07T03:07:49.668Z,24.87
2019-05-07T03:10:23.822Z,23.92
2019-05-07T03:12:53.747Z,25.65
2019-05-07T03:15:24.753Z,24.55
2019-05-07T03:17:55.759Z,22.75
2019-05-07T03:20:33.400Z,23.20
2019-05-07T03:23:05.337Z,23.52
2019-05-07T03:26:13.670Z,25.17
2019-05-07T03:28:54.031Z,22.40
2019-05-07T03:31:46.623Z,24.18
2019-05-07T03:34:39.003Z,24.63
2019-05-07T03:37:13.627Z,22.30
2019-05-07T03:39:43.749Z,21.68
2019-05-07T03:42:14.682Z,21.85
2019-05-07T03:44:56.747Z,21.62
2019-05-07T03:47:35.625Z,20.95
2019-05-07T03:50:08.993Z,20.40
2019-05-07T03:52:42.593Z,22.37
2019-05-07T03:55:14.550Z,21.60
2019-05-07T03:57:44.802Z,22.82
2019-05-07T04:00:15.619Z,22.25
2019-05-07T04:02:46.388Z,22.07
2019-05-07T04:05:17.494Z,22.67
2019-05-07T04:07:48.340Z,20.90
2019-05-07T04:10:19.125Z,20.10
2019-05-07T04:12:53.126Z,21.45
2019-05-07T04:15:23.458Z,20.50
2019-05-07T04:17:54.480Z,20.75
2019-05-07T04:20:25.289Z,21.68
2019-05-07T04:22:58.123Z,20.00
2019-05-07T04:25:47.227Z,19.07
2019-05-07T04:28:28.387Z,19.20
2019-05-07T04:31:02.926Z,19.25
2019-05-07T04:33:40.278Z,19.77
2019-05-07T04:36:23.105Z,19.10
2019-05-07T04:38:54.238Z,20.17
2019-05-07T04:41:24.932Z,19.35
2019-05-07T04:43:55.632Z,18.42
2019-05-07T04:46:26.641Z,17.90
2019-05-07T04:48:57.616Z,19.48
2019-05-07T04:51:38.185Z,18.77
2019-05-07T04:54:08.982Z,19.12
2019-05-07T04:56:43.340Z,19.45
2019-05-07T04:59:13.292Z,18.30
2019-05-07T05:01:50.623Z,17.57
2019-05-07T05:04:30.185Z,16.15
2019-05-07T05:06:55.498Z,15.90
2019-05-07T05:09:26.380Z,15.60
2019-05-07T05:11:57.319Z,17.40
2019-05-07T05:14:28.154Z,16.12
2019-05-07T05:16:59.160Z,20.92
2019-05-07T05:19:32.174Z,19.12
2019-05-07T05:22:22.161Z,20.52
2019-05-07T05:25:12.120Z,16.23
2019-05-07T05:27:43.111Z,73.85
2019-05-07T05:30:17.464Z,58.08
2019-05-07T05:32:48.333Z,43.05
2019-05-07T05:35:19.243Z,24.43
2019-05-07T05:37:51.926Z,17.70
2019-05-07T05:40:23.810Z,16.45
2019-05-07T05:43:04.195Z,15.95
2019-05-07T05:45:36.131Z,15.43
2019-05-07T05:48:08.558Z,11.20
2019-05-07T05:50:57.133Z,14.95
2019-05-07T05:53:43.839Z,14.65
2019-05-07T05:56:29.685Z,9.58
2019-05-07T05:59:25.439Z,10.15
2019-05-07T06:02:24.780Z,8.78
2019-05-07T06:05:05.872Z,8.23
2019-05-07T06:07:42.748Z,11.28
2019-05-07T06:10:35.172Z,6.03
2019-05-07T06:13:12.435Z,7.80
2019-05-07T06:15:57.276Z,9.38
2019-05-07T06:18:52.553Z,9.50
2019-05-07T06:21:48.050Z,13.72
2019-05-07T06:24:22.866Z,12.85
2019-05-07T06:26:53.703Z,7.60
2019-05-07T06:29:24.707Z,10.55
2019-05-07T06:32:05.358Z,9.08
2019-05-07T06:34:36.289Z,9.33
2019-05-07T06:37:07.299Z,7.97
2019-05-07T06:39:45.136Z,8.05
2019-05-07T06:42:49.823Z,8.40
2019-05-07T06:45:24.563Z,6.50
2019-05-07T06:47:55.517Z,6.85
2019-05-07T06:50:26.572Z,7.40
2019-05-07T06:52:57.931Z,6.92
2019-05-07T06:55:28.875Z,5.40
2019-05-07T06:57:59.894Z,5.97
2019-05-07T07:00:48.498Z,6.78
2019-05-07T07:03:28.607Z,7.65
2019-05-07T07:06:23.082Z,7.75
2019-05-07T07:09:15.722Z,6.20
2019-05-07T07:11:56.382Z,6.92
2019-05-07T07:14:27.161Z,6.10
2019-05-07T07:16:58.084Z,5.78
2019-05-07T07:19:28.667Z,6.37
2019-05-07T07:21:59.473Z,5.92
2019-05-07T07:24:29.899Z,5.90
2019-05-07T07:27:02.397Z,7.33
2019-05-07T07:29:34.592Z,5.03
2019-05-07T07:32:06.350Z,4.22
2019-05-07T07:34:43.335Z,6.50
2019-05-07T07:37:22.989Z,6.22
2019-05-07T07:40:12.873Z,4.97
2019-05-07T07:42:43.866Z,5.28
2019-05-07T07:45:16.135Z,13.55
2019-05-07T07:47:48.766Z,8.55
2019-05-07T07:50:22.268Z,10.93
2019-05-07T07:52:53.099Z,10.05
2019-05-07T07:55:32.996Z,5.40
2019-05-07T07:58:12.031Z,7.80
2019-05-07T08:01:18.343Z,6.05
2019-05-07T08:03:49.443Z,6.62
2019-05-07T08:06:22.425Z,7.15
2019-05-07T08:08:53.086Z,5.45
2019-05-07T08:11:23.943Z,4.60
2019-05-07T08:13:54.872Z,5.92
2019-05-07T08:16:25.862Z,5.05
2019-05-07T08:18:56.689Z,5.15
2019-05-07T08:21:27.465Z,4.92
2019-05-07T08:23:58.419Z,4.87
2019-05-07T08:26:29.138Z,4.33
2019-05-07T08:28:59.924Z,4.97
2019-05-07T08:31:42.508Z,4.92
2019-05-07T08:34:35.066Z,3.47
2019-05-07T08:37:05.871Z,5.45
2019-05-07T08:39:36.542Z,8.18
2019-05-07T08:42:07.401Z,3.85
2019-05-07T08:44:44.666Z,4.40
2019-05-07T08:47:37.623Z,2.00
2019-05-07T08:50:08.457Z,3.17
2019-05-07T08:52:39.522Z,3.50
2019-05-07T08:55:12.410Z,4.03
2019-05-07T08:57:45.809Z,3.20
2019-05-07T09:00:17.174Z,3.25
2019-05-07T09:02:48.103Z,5.53
2019-05-07T09:05:19.065Z,2.37
2019-05-07T09:07:53.605Z,4.03
2019-05-07T09:10:24.501Z,3.42
2019-05-07T09:12:55.243Z,3.45
2019-05-07T09:15:25.995Z,4.90
2019-05-07T09:17:56.991Z,3.08
2019-05-07T09:20:27.666Z,2.83
2019-05-07T09:22:58.538Z,4.25
2019-05-07T09:25:29.310Z,2.72
2019-05-07T09:28:02.533Z,3.77
2019-05-07T09:31:01.796Z,3.15
2019-05-07T09:33:42.127Z,4.58
2019-05-07T09:36:26.472Z,2.98
2019-05-07T09:38:59.374Z,2.40
2019-05-07T09:41:29.641Z,4.55
2019-05-07T09:44:02.987Z,3.40
2019-05-07T09:46:33.618Z,4.58
2019-05-07T09:49:04.552Z,2.22
2019-05-07T09:51:35.523Z,3.08
2019-05-07T09:54:06.027Z,2.10
2019-05-07T09:56:36.723Z,3.22
2019-05-07T09:59:07.270Z,1.52
2019-05-07T10:01:37.875Z,2.70
2019-05-07T10:04:08.426Z,2.00
2019-05-07T10:06:38.930Z,3.15
2019-05-07T10:09:11.885Z,2.33
2019-05-07T10:11:48.965Z,3.33
2019-05-07T10:14:19.817Z,4.90
2019-05-07T10:17:02.378Z,2.67
2019-05-07T10:19:32.903Z,4.37
2019-05-07T10:22:03.939Z,4.92
2019-05-07T10:24:35.003Z,3.70
2019-05-07T10:27:05.550Z,2.87
2019-05-07T10:29:36.065Z,3.30
2019-05-07T10:32:06.760Z,3.60
2019-05-07T10:34:37.517Z,2.33
2019-05-07T10:37:08.408Z,3.15
2019-05-07T10:39:39.532Z,5.22
2019-05-07T10:42:12.193Z,3.27
2019-05-07T10:44:53.001Z,4.37
2019-05-07T10:47:45.881Z,7.22
2019-05-07T10:50:35.574Z,9.28
2019-05-07T10:52:57.603Z,4.53
2019-05-07T10:55:34.442Z,3.77
2019-05-07T10:58:05.480Z,2.98
2019-05-07T11:00:36.613Z,3.67
2019-05-07T11:03:07.474Z,4.53
2019-05-07T11:05:38.547Z,5.55
2019-05-07T11:08:09.303Z,2.22
2019-05-07T11:10:41.859Z,2.87
2019-05-07T11:13:12.988Z,3.70
2019-05-07T11:15:45.711Z,3.70
2019-05-07T11:18:40.149Z,4.97
2019-05-07T11:21:11.858Z,3.40
2019-05-07T11:23:42.874Z,2.65
2019-05-07T11:26:13.775Z,2.15
2019-05-07T11:28:44.861Z,3.67
2019-05-07T11:31:15.559Z,2.10
2019-05-07T11:33:46.416Z,3.37
2019-05-07T11:36:17.248Z,3.62
2019-05-07T11:38:48.422Z,3.25
2019-05-07T11:41:23.022Z,2.90
2019-05-07T11:43:58.942Z,2.27
2019-05-07T11:46:41.953Z,2.30
2019-05-07T11:49:32.722Z,2.62
2019-05-07T11:52:12.296Z,3.37
2019-05-07T11:54:43.853Z,2.85
2019-05-07T11:57:15.043Z,2.15
2019-05-07T11:59:45.784Z,1.85
2019-05-07T12:02:16.906Z,1.40
2019-05-07T12:04:48.377Z,2.02
2019-05-07T12:07:19.439Z,1.82
2019-05-07T12:09:52.574Z,2.55
2019-05-07T12:12:23.560Z,2.05
2019-05-07T12:14:54.536Z,2.12
2019-05-07T12:17:25.446Z,2.90
2019-05-07T12:19:56.601Z,1.30
2019-05-07T12:22:51.978Z,2.15
2019-05-07T12:25:23.113Z,3.15
2019-05-07T12:27:54.693Z,1.75
2019-05-07T12:30:39.174Z,1.32
2019-05-07T12:33:28.078Z,2.60
2019-05-07T12:35:59.355Z,2.47
2019-05-07T12:38:32.255Z,2.08
2019-05-07T12:41:22.207Z,2.37
2019-05-07T12:43:53.163Z,2.70
2019-05-07T12:46:24.270Z,3.08
2019-05-07T12:48:55.839Z,3.05
2019-05-07T12:51:36.323Z,3.17
2019-05-07T12:54:05.442Z,1.92
2019-05-07T12:56:36.766Z,2.08
2019-05-07T12:59:08.083Z,1.67
2019-05-07T13:02:15.973Z,1.85
2019-05-07T13:04:35.052Z,2.27
2019-05-07T13:07:15.857Z,1.42
2019-05-07T13:09:46.839Z,2.92
2019-05-07T13:12:21.626Z,3.45
2019-05-07T13:14:52.604Z,2.85
2019-05-07T13:17:27.540Z,2.22
2019-05-07T13:20:01.765Z,1.92
2019-05-07T13:22:33.166Z,1.92
2019-05-07T13:25:04.113Z,3.37
2019-05-07T13:27:35.196Z,5.87
2019-05-07T13:30:06.782Z,3.52
2019-05-07T13:32:38.257Z,2.27
2019-05-07T13:35:15.194Z,4.80
2019-05-07T13:38:06.054Z,6.08
2019-05-07T13:40:56.108Z,4.50
2019-05-07T13:43:31.799Z,7.05
2019-05-07T13:46:08.949Z,5.00
2019-05-07T13:48:43.944Z,4.15
2019-05-07T13:51:14.479Z,3.20
2019-05-07T13:53:45.548Z,3.33
2019-05-07T13:56:16.547Z,3.98
2019-05-07T13:58:47.648Z,3.98
2019-05-07T14:01:43.252Z,3.65
2019-05-07T14:04:14.866Z,2.95
2019-05-07T14:06:46.394Z,3.67
2019-05-07T14:09:23.914Z,7.05
2019-05-07T14:11:53.423Z,2.70
2019-05-07T14:14:24.423Z,2.60
2019-05-07T14:16:55.824Z,2.90
2019-05-07T14:19:26.718Z,2.42
2019-05-07T14:21:57.621Z,2.72
2019-05-07T14:24:28.827Z,4.12
2019-05-07T14:27:02.062Z,2.72
2019-05-07T14:29:32.560Z,5.97
2019-05-07T14:32:25.751Z,5.55
2019-05-07T14:35:25.068Z,5.15
2019-05-07T14:38:00.537Z,3.15
2019-05-07T14:40:32.367Z,2.50
2019-05-07T14:43:12.593Z,2.67
2019-05-07T14:45:43.526Z,3.10
2019-05-07T14:48:14.735Z,3.17
2019-05-07T14:50:45.663Z,3.02
2019-05-07T14:53:16.674Z,2.15
2019-05-07T14:55:47.797Z,3.72
2019-05-07T14:58:19.035Z,3.37
2019-05-07T15:00:51.855Z,2.17
2019-05-07T15:03:23.009Z,2.55
2019-05-07T15:05:53.920Z,2.65
2019-05-07T15:08:24.717Z,2.02
2019-05-07T15:10:55.500Z,3.30
2019-05-07T15:13:26.463Z,2.15
2019-05-07T15:15:57.473Z,2.10
2019-05-07T15:18:47.901Z,2.08
2019-05-07T15:21:19.005Z,2.85
2019-05-07T15:23:50.291Z,1.90
2019-05-07T15:26:22.036Z,2.77
2019-05-07T15:28:58.640Z,2.50
2019-05-07T15:31:47.321Z,2.55
2019-05-07T15:34:18.037Z,4.03
2019-05-07T15:36:48.882Z,2.65
2019-05-07T15:39:22.133Z,2.35
2019-05-07T15:41:52.826Z,2.15
2019-05-07T15:44:24.327Z,2.35
2019-05-07T15:46:56.820Z,2.27
2019-05-07T15:49:27.668Z,2.70
2019-05-07T15:52:01.787Z,1.75
2019-05-07T15:54:32.975Z,2.00
2019-05-07T15:57:06.035Z,2.65
2019-05-07T15:59:37.048Z,3.58
2019-05-07T16:02:26.777Z,2.70
2019-05-07T16:04:57.966Z,3.72
2019-05-07T16:07:28.905Z,2.98
2019-05-07T16:09:59.787Z,6.00
2019-05-07T16:12:32.036Z,5.55
2019-05-07T16:15:03.330Z,4.15
2019-05-07T16:17:38.700Z,3.12
2019-05-07T16:20:09.560Z,3.55
2019-05-07T16:22:43.881Z,7.47
2019-05-07T16:25:14.698Z,4.20
2019-05-07T16:27:45.487Z,5.53
2019-05-07T16:30:16.987Z,3.27
2019-05-07T16:32:47.802Z,4.35
2019-05-07T16:35:18.666Z,4.97
2019-05-07T16:37:49.518Z,5.87
2019-05-07T16:40:22.804Z,3.15
2019-05-07T16:42:52.962Z,5.03
2019-05-07T16:45:24.225Z,4.50
2019-05-07T16:47:55.012Z,4.12
2019-05-07T16:50:26.072Z,2.72
2019-05-07T16:52:56.917Z,6.08
2019-05-07T16:55:36.864Z,4.17
2019-05-07T16:58:22.867Z,5.85
2019-05-07T17:01:00.044Z,3.47
2019-05-07T17:03:36.100Z,3.22
2019-05-07T17:06:07.552Z,2.70
2019-05-07T17:09:03.275Z,3.40
2019-05-07T17:11:34.378Z,3.50
2019-05-07T17:14:05.455Z,1.92
2019-05-07T17:16:38.224Z,1.52
2019-05-07T17:19:11.660Z,3.72
2019-05-07T17:21:43.212Z,5.42
2019-05-07T17:24:13.766Z,4.35
2019-05-07T17:26:44.278Z,3.10
2019-05-07T17:29:14.720Z,5.83
2019-05-07T17:31:45.160Z,7.33
2019-05-07T17:34:16.145Z,7.12
2019-05-07T17:36:47.237Z,4.83
2019-05-07T17:39:18.206Z,3.50
2019-05-07T17:41:49.088Z,3.85
2019-05-07T17:44:23.077Z,2.35
2019-05-07T17:46:53.598Z,3.45
2019-05-07T17:49:24.961Z,3.65
2019-05-07T17:51:55.918Z,3.67
2019-05-07T17:54:35.962Z,3.72
2019-05-07T17:57:34.805Z,4.20
2019-05-07T18:00:32.890Z,261.12
2019-05-07T18:03:35.827Z,421.20
2019-05-07T18:06:15.513Z,235.53
2019-05-07T18:09:02.722Z,158.72
2019-05-07T18:11:43.946Z,138.60
2019-05-07T18:14:15.127Z,125.58
2019-05-07T18:17:06.998Z,124.00
2019-05-07T18:19:37.890Z,118.08
2019-05-07T18:22:09.026Z,113.95
2019-05-07T18:24:41.949Z,99.60
2019-05-07T18:27:19.748Z,86.10
2019-05-07T18:29:52.188Z,73.45
2019-05-07T18:32:28.011Z,68.12
2019-05-07T18:34:59.007Z,59.40
2019-05-07T18:37:30.121Z,52.38
2019-05-07T18:40:02.571Z,53.28
2019-05-07T18:42:33.905Z,54.60
2019-05-07T18:45:04.991Z,52.20
2019-05-07T18:47:36.095Z,49.18
2019-05-07T18:50:06.875Z,48.87
2019-05-07T18:52:37.944Z,44.95
2019-05-07T18:55:08.836Z,50.20
2019-05-07T18:57:42.242Z,47.45
2019-05-07T19:00:18.191Z,55.50
2019-05-07T19:02:49.519Z,47.55
2019-05-07T19:05:22.237Z,48.23
2019-05-07T19:08:04.299Z,50.08
2019-05-07T19:10:25.740Z,41.85
2019-05-07T19:12:56.749Z,43.85
2019-05-07T19:15:27.479Z,41.58
2019-05-07T19:17:58.682Z,40.05
2019-05-07T19:20:29.603Z,46.92
2019-05-07T19:23:02.534Z,43.68
2019-05-07T19:25:33.237Z,42.78
2019-05-07T19:28:04.415Z,36.45
2019-05-07T19:30:35.309Z,39.55
2019-05-07T19:33:06.777Z,40.67
2019-05-07T19:35:37.793Z,35.25
2019-05-07T19:38:08.606Z,39.45
2019-05-07T19:40:41.921Z,37.75
2019-05-07T19:43:12.571Z,35.13
2019-05-07T19:45:43.542Z,31.68
2019-05-07T19:48:14.980Z,39.00
2019-05-07T19:50:46.232Z,34.60
2019-05-07T19:53:20.358Z,34.10
2019-05-07T19:56:07.251Z,34.23
2019-05-07T19:58:38.462Z,33.60
2019-05-07T20:01:12.162Z,35.50
2019-05-07T20:03:43.505Z,33.35
2019-05-07T20:06:14.853Z,31.97
2019-05-07T20:08:45.866Z,32.45
2019-05-07T20:11:32.425Z,32.85
2019-05-07T20:14:03.575Z,32.25
2019-05-07T20:16:34.593Z,33.48
2019-05-07T20:19:09.333Z,32.85
2019-05-07T20:21:40.487Z,35.43
2019-05-07T20:24:12.450Z,30.77
2019-05-07T20:26:44.011Z,30.15
2019-05-07T20:29:14.966Z,30.82
2019-05-07T20:31:46.192Z,24.95
2019-05-07T20:34:17.493Z,27.58
2019-05-07T20:36:48.630Z,28.90
2019-05-07T20:39:19.860Z,27.25
2019-05-07T20:41:52.665Z,27.80
2019-05-07T20:44:23.354Z,25.57
2019-05-07T20:46:54.618Z,24.80
2019-05-07T20:49:25.766Z,25.25
2019-05-07T20:51:56.941Z,26.05
2019-05-07T20:54:46.156Z,23.65
2019-05-07T20:57:26.799Z,23.65
2019-05-07T20:59:57.807Z,26.23
2019-05-07T21:02:42.455Z,23.60
2019-05-07T21:05:02.965Z,24.43
2019-05-07T21:07:34.918Z,24.92
2019-05-07T21:10:06.102Z,21.33
2019-05-07T21:12:37.381Z,23.45
2019-05-07T21:15:08.882Z,22.52
2019-05-07T21:17:40.157Z,23.05
2019-05-07T21:20:12.136Z,23.00
2019-05-07T21:22:43.451Z,21.23
2019-05-07T21:25:14.504Z,21.12
2019-05-07T21:27:45.471Z,21.85
2019-05-07T21:30:17.649Z,19.17
2019-05-07T21:32:48.847Z,21.85
2019-05-07T21:35:22.265Z,20.37
2019-05-07T21:37:53.138Z,19.57
2019-05-07T21:40:23.921Z,20.55
2019-05-07T21:42:54.810Z,19.42
2019-05-07T21:45:25.838Z,16.82
2019-05-07T21:47:56.614Z,16.97
2019-05-07T21:50:27.380Z,21.33
2019-05-07T21:53:03.020Z,17.25
2019-05-07T21:56:01.782Z,19.65
2019-05-07T21:58:36.744Z,18.27
2019-05-07T22:01:21.901Z,24.45
2019-05-07T22:03:55.304Z,19.67
2019-05-07T22:06:26.199Z,18.48
2019-05-07T22:08:57.162Z,17.42
2019-05-07T22:11:28.136Z,17.60
2019-05-07T22:13:58.861Z,18.50
2019-05-07T22:16:29.706Z,24.57
2019-05-07T22:19:02.667Z,25.97
2019-05-07T22:21:34.227Z,23.98
2019-05-07T22:24:05.262Z,17.82
2019-05-07T22:26:35.834Z,18.70
2019-05-07T22:29:06.801Z,21.45
2019-05-07T22:31:45.343Z,15.72
2019-05-07T22:34:38.339Z,19.00
2019-05-07T22:37:12.466Z,17.80
2019-05-07T22:39:42.627Z,17.85
2019-05-07T22:42:14.853Z,17.48
2019-05-07T22:44:45.866Z,17.23
2019-05-07T22:47:22.570Z,16.10
2019-05-07T22:49:54.602Z,15.55
2019-05-07T22:52:26.903Z,15.20
2019-05-07T22:54:59.424Z,14.93
2019-05-07T22:57:52.626Z,16.48
2019-05-07T23:00:36.479Z,13.22
2019-05-07T23:03:07.320Z,12.98
2019-05-07T23:05:38.269Z,12.13
2019-05-07T23:08:09.227Z,12.55
2019-05-07T23:10:42.139Z,11.60
2019-05-07T23:13:13.046Z,12.30
2019-05-07T23:15:44.076Z,13.72
2019-05-07T23:18:15.128Z,11.90
2019-05-07T23:20:45.864Z,11.65
2019-05-07T23:23:16.707Z,9.13
2019-05-07T23:25:47.519Z,11.40
2019-05-07T23:28:18.483Z,10.48
2019-05-07T23:30:49.076Z,10.32
2019-05-07T23:33:19.975Z,11.65
2019-05-07T23:35:52.648Z,12.37
2019-05-07T23:38:22.974Z,11.63
2019-05-07T23:41:27.623Z,10.53
2019-05-07T23:44:12.610Z,9.08
2019-05-07T23:46:44.869Z,10.28
2019-05-07T23:49:16.153Z,11.43
2019-05-07T23:51:47.035Z,10.80
2019-05-07T23:54:18.003Z,10.85
2019-05-07T23:57:04.470Z,8.50
2019-05-07T23:59:22.291Z,9.90
